createdAt,value
2022-08-17T00:02:26.275Z,46.65
2022-08-17T00:04:54.248Z,46.13
2022-08-17T00:07:20.899Z,46.35
2022-08-17T00:09:47.692Z,45.84
2022-08-17T00:12:43.135Z,46.15
2022-08-17T00:15:01.358Z,46.03
2022-08-17T00:17:28.010Z,46.17
2022-08-17T00:19:54.703Z,46.75
2022-08-17T00:22:35.241Z,47.32
2022-08-17T00:25:09.103Z,48.60
2022-08-17T00:27:37.002Z,48.17
2022-08-17T00:30:06.790Z,47.03
2022-08-17T00:33:14.625Z,47.82
2022-08-17T00:35:41.855Z,47.72
2022-08-17T00:38:10.020Z,46.79
2022-08-17T00:40:59.004Z,48.17
2022-08-17T00:43:32.803Z,47.43
2022-08-17T00:46:03.075Z,47.51
2022-08-17T00:48:30.984Z,46.97
2022-08-17T00:51:15.069Z,47.26
2022-08-17T00:53:51.414Z,48.01
2022-08-17T00:56:28.526Z,47.59
2022-08-17T00:58:55.698Z,48.19
2022-08-17T01:01:23.315Z,48.04
2022-08-17T01:03:53.396Z,47.48
2022-08-17T01:06:24.272Z,46.82
2022-08-17T01:08:57.450Z,46.49
2022-08-17T01:11:25.408Z,47.39
2022-08-17T01:13:52.125Z,47.98
2022-08-17T01:16:30.999Z,48.12
2022-08-17T01:19:01.389Z,47.17
2022-08-17T01:21:39.903Z,47.19
2022-08-17T01:24:07.338Z,47.19
2022-08-17T01:26:35.598Z,47.79
2022-08-17T01:29:04.700Z,47.39
2022-08-17T01:31:45.708Z,47.51
2022-08-17T01:34:14.791Z,47.43
2022-08-17T01:36:44.689Z,47.97
2022-08-17T01:39:31.694Z,47.74
2022-08-17T01:42:13.511Z,47.88
2022-08-17T01:44:41.119Z,48.94
2022-08-17T01:47:07.845Z,48.22
2022-08-17T01:49:34.581Z,48.32
2022-08-17T01:52:08.270Z,48.01
2022-08-17T01:54:37.077Z,46.07
2022-08-17T01:57:04.546Z,46.50
2022-08-17T01:59:31.204Z,45.66
2022-08-17T02:01:58.099Z,46.55
2022-08-17T02:04:24.894Z,46.72
2022-08-17T02:06:53.400Z,46.97
2022-08-17T02:09:25.666Z,47.84
2022-08-17T02:11:56.217Z,47.23
2022-08-17T02:14:24.532Z,46.88
2022-08-17T02:16:51.919Z,46.61
2022-08-17T02:19:19.163Z,47.08
2022-08-17T02:21:49.511Z,47.18
2022-08-17T02:25:00.026Z,47.23
2022-08-17T02:27:08.244Z,47.54
2022-08-17T02:29:35.064Z,47.95
2022-08-17T02:32:01.978Z,48.11
2022-08-17T02:34:30.036Z,48.09
2022-08-17T02:36:56.750Z,48.42
2022-08-17T02:39:23.539Z,48.96
2022-08-17T02:41:50.458Z,49.54
2022-08-17T02:44:39.075Z,49.46
2022-08-17T02:47:04.220Z,50.10
2022-08-17T02:49:31.107Z,50.26
2022-08-17T02:51:58.951Z,50.30
2022-08-17T02:54:39.874Z,49.95
2022-08-17T02:57:09.256Z,50.37
2022-08-17T02:59:35.915Z,50.79
2022-08-17T03:02:11.812Z,51.02
2022-08-17T03:04:38.715Z,50.91
2022-08-17T03:07:06.754Z,51.45
2022-08-17T03:09:33.626Z,51.37
2022-08-17T03:12:20.489Z,51.57
2022-08-17T03:14:47.105Z,51.77
2022-08-17T03:17:17.027Z,51.85
2022-08-17T03:19:44.671Z,52.33
2022-08-17T03:22:34.745Z,52.47
2022-08-17T03:24:58.551Z,52.29
2022-08-17T03:27:25.246Z,52.09
2022-08-17T03:29:51.926Z,52.63
2022-08-17T03:32:20.661Z,52.21
2022-08-17T03:34:47.767Z,52.05
2022-08-17T03:37:14.814Z,52.22
2022-08-17T03:39:41.767Z,53.09
2022-08-17T03:42:32.448Z,52.78
2022-08-17T03:45:00.841Z,53.03
2022-08-17T03:47:46.233Z,53.20
2022-08-17T03:50:32.556Z,53.02
2022-08-17T03:53:17.571Z,52.33
2022-08-17T03:56:03.034Z,52.40
2022-08-17T03:58:29.730Z,52.27
2022-08-17T04:00:56.407Z,52.30
2022-08-17T04:03:23.047Z,52.09
2022-08-17T04:05:49.719Z,52.05
2022-08-17T04:08:16.358Z,51.86
2022-08-17T04:10:45.238Z,52.46
2022-08-17T04:13:12.674Z,53.44
2022-08-17T04:15:39.523Z,53.81
2022-08-17T04:18:07.524Z,53.74
2022-08-17T04:20:34.798Z,53.90
2022-08-17T04:23:11.313Z,53.84
2022-08-17T04:25:42.183Z,53.84
2022-08-17T04:28:16.294Z,54.90
2022-08-17T04:30:45.794Z,54.74
2022-08-17T04:33:21.877Z,54.98
2022-08-17T04:35:51.644Z,54.61
2022-08-17T04:38:22.206Z,55.54
2022-08-17T04:41:07.846Z,55.64
2022-08-17T04:43:35.862Z,56.15
2022-08-17T04:46:05.625Z,55.31
2022-08-17T04:48:37.882Z,55.11
2022-08-17T04:51:13.861Z,54.88
2022-08-17T04:53:44.063Z,55.00
2022-08-17T04:56:16.750Z,55.13
2022-08-17T04:58:47.895Z,55.07
2022-08-17T05:01:23.245Z,55.85
2022-08-17T05:03:56.243Z,57.02
2022-08-17T05:06:23.783Z,56.58
2022-08-17T05:08:50.491Z,56.21
2022-08-17T05:11:17.466Z,56.24
2022-08-17T05:13:44.820Z,55.28
2022-08-17T05:16:12.242Z,54.81
2022-08-17T05:18:39.179Z,55.16
2022-08-17T05:21:07.082Z,54.94
2022-08-17T05:23:41.866Z,54.62
2022-08-17T05:26:26.270Z,55.34
2022-08-17T05:28:57.016Z,54.86
2022-08-17T05:31:25.233Z,54.99
2022-08-17T05:33:52.728Z,54.72
2022-08-17T05:36:42.079Z,54.68
2022-08-17T05:39:06.640Z,54.16
2022-08-17T05:41:33.295Z,55.02
2022-08-17T05:43:59.903Z,53.08
2022-08-17T05:46:37.441Z,53.21
2022-08-17T05:49:08.092Z,53.00
2022-08-17T05:51:56.561Z,53.02
2022-08-17T05:55:01.311Z,52.74
2022-08-17T05:57:43.641Z,52.05
2022-08-17T06:00:42.073Z,51.47
2022-08-17T06:03:24.073Z,52.17
2022-08-17T06:06:15.141Z,50.99
2022-08-17T06:09:05.279Z,51.27
2022-08-17T06:11:58.766Z,51.23
2022-08-17T06:14:43.548Z,50.41
2022-08-17T06:17:16.771Z,52.14
2022-08-17T06:19:52.910Z,50.10
2022-08-17T06:22:23.482Z,50.08
2022-08-17T06:25:13.743Z,50.54
2022-08-17T06:27:41.384Z,51.24
2022-08-17T06:30:41.411Z,52.33
2022-08-17T06:33:36.794Z,51.54
2022-08-17T06:36:15.932Z,51.17
2022-08-17T06:38:58.788Z,51.49
2022-08-17T06:41:44.760Z,51.24
2022-08-17T06:44:43.682Z,50.98
2022-08-17T06:47:28.167Z,50.64
2022-08-17T06:50:15.760Z,50.02
2022-08-17T06:52:53.968Z,49.94
2022-08-17T06:55:38.299Z,50.22
2022-08-17T06:58:16.245Z,50.22
2022-08-17T07:00:47.274Z,49.21
2022-08-17T07:03:29.091Z,48.91
2022-08-17T07:06:05.710Z,48.85
2022-08-17T07:09:01.936Z,48.00
2022-08-17T07:11:42.043Z,47.40
2022-08-17T07:14:31.769Z,47.53
2022-08-17T07:17:03.040Z,47.33
2022-08-17T07:19:33.187Z,46.50
2022-08-17T07:22:15.589Z,46.04
2022-08-17T07:24:53.173Z,45.59
2022-08-17T07:27:21.372Z,44.42
2022-08-17T07:29:57.078Z,43.78
2022-08-17T07:32:31.828Z,47.02
2022-08-17T07:35:23.102Z,46.42
2022-08-17T07:38:24.388Z,46.26
2022-08-17T07:41:13.947Z,43.25
2022-08-17T07:43:40.598Z,44.02
2022-08-17T07:46:54.835Z,43.40
2022-08-17T07:49:35.431Z,42.74
2022-08-17T07:52:47.416Z,42.03
2022-08-17T07:54:59.428Z,43.56
2022-08-17T07:57:36.192Z,42.89
2022-08-17T08:00:03.175Z,42.64
2022-08-17T08:02:40.312Z,43.26
2022-08-17T08:05:13.967Z,42.98
2022-08-17T08:08:28.275Z,43.90
2022-08-17T08:11:02.173Z,44.12
2022-08-17T08:13:30.316Z,44.82
2022-08-17T08:16:17.517Z,44.56
2022-08-17T08:18:55.517Z,42.94
2022-08-17T08:21:41.898Z,42.49
2022-08-17T08:24:42.897Z,42.73
2022-08-17T08:27:18.245Z,42.44
2022-08-17T08:30:04.998Z,42.21
2022-08-17T08:33:09.269Z,41.24
2022-08-17T08:35:56.638Z,41.73
2022-08-17T08:38:53.692Z,40.98
2022-08-17T08:41:25.543Z,41.33
2022-08-17T08:43:55.127Z,39.67
2022-08-17T08:46:40.695Z,38.88
2022-08-17T08:49:59.553Z,36.64
2022-08-17T08:52:40.518Z,37.30
2022-08-17T08:55:07.834Z,37.01
2022-08-17T08:57:40.697Z,36.26
2022-08-17T09:00:25.882Z,36.85
2022-08-17T09:03:36.713Z,37.22
2022-08-17T09:06:58.026Z,36.45
2022-08-17T09:09:43.269Z,36.68
2022-08-17T09:12:21.362Z,37.37
2022-08-17T09:15:13.221Z,37.20
2022-08-17T09:19:02.816Z,36.40
2022-08-17T09:21:07.728Z,37.07
2022-08-17T09:24:12.703Z,36.42
2022-08-17T09:26:54.768Z,35.05
2022-08-17T09:29:25.569Z,35.24
2022-08-17T09:32:04.010Z,36.40
2022-08-17T09:34:38.738Z,36.68
2022-08-17T09:37:19.298Z,36.69
2022-08-17T09:39:55.685Z,35.29
2022-08-17T09:42:49.863Z,35.98
2022-08-17T09:45:30.268Z,36.45
2022-08-17T09:48:20.789Z,36.37
2022-08-17T09:51:04.818Z,37.52
2022-08-17T09:53:35.904Z,36.87
2022-08-17T09:56:08.902Z,35.77
2022-08-17T09:58:50.931Z,35.41
2022-08-17T10:01:39.887Z,34.91
2022-08-17T10:04:20.103Z,34.25
2022-08-17T10:06:58.883Z,34.53
2022-08-17T10:09:33.278Z,35.56
2022-08-17T10:12:17.678Z,35.37
2022-08-17T10:15:09.485Z,36.05
2022-08-17T10:17:59.392Z,35.38
2022-08-17T10:20:46.612Z,36.22
2022-08-17T10:23:46.813Z,35.38
2022-08-17T10:26:24.004Z,35.90
2022-08-17T10:29:00.759Z,35.03
2022-08-17T10:31:38.417Z,32.73
2022-08-17T10:34:23.567Z,33.91
2022-08-17T10:37:11.170Z,34.60
2022-08-17T10:39:52.214Z,34.32
2022-08-17T10:42:32.935Z,34.46
2022-08-17T10:45:26.835Z,33.93
2022-08-17T10:48:05.033Z,34.08
2022-08-17T10:50:49.652Z,32.95
2022-08-17T10:53:50.637Z,32.64
2022-08-17T10:56:21.355Z,33.42
2022-08-17T10:58:54.068Z,32.79
2022-08-17T11:01:44.492Z,32.60
2022-08-17T11:04:17.649Z,32.94
2022-08-17T11:07:05.751Z,32.61
2022-08-17T11:09:55.153Z,32.90
2022-08-17T11:12:33.885Z,31.50
2022-08-17T11:15:41.887Z,31.17
2022-08-17T11:18:33.028Z,31.15
2022-08-17T11:21:23.255Z,31.89
2022-08-17T11:24:14.844Z,31.11
2022-08-17T11:26:48.869Z,30.73
2022-08-17T11:29:35.496Z,30.07
2022-08-17T11:32:13.526Z,28.96
2022-08-17T11:34:44.581Z,29.64
2022-08-17T11:37:29.695Z,29.04
2022-08-17T11:40:33.645Z,29.83
2022-08-17T11:43:07.972Z,28.93
2022-08-17T11:45:58.365Z,30.00
2022-08-17T11:49:08.220Z,29.02
2022-08-17T11:52:13.823Z,30.33
2022-08-17T11:54:45.368Z,32.05
2022-08-17T11:57:27.066Z,35.16
2022-08-17T12:00:12.711Z,36.73
2022-08-17T12:02:47.908Z,36.51
2022-08-17T12:05:16.932Z,36.97
2022-08-17T12:07:49.295Z,36.80
2022-08-17T12:10:21.535Z,37.30
2022-08-17T12:12:53.353Z,39.04
2022-08-17T12:15:29.317Z,39.70
2022-08-17T12:17:57.483Z,38.28
2022-08-17T12:20:28.032Z,38.91
2022-08-17T12:23:16.505Z,38.21
2022-08-17T12:26:11.454Z,38.04
2022-08-17T12:28:44.267Z,37.04
2022-08-17T12:31:25.930Z,37.17
2022-08-17T12:33:52.974Z,37.48
2022-08-17T12:36:24.881Z,35.98
2022-08-17T12:39:12.815Z,35.14
2022-08-17T12:41:44.567Z,35.36
2022-08-17T12:44:12.299Z,34.59
2022-08-17T12:47:01.848Z,34.06
2022-08-17T12:49:37.476Z,33.72
2022-08-17T12:52:28.596Z,34.44
2022-08-17T12:55:00.197Z,35.94
2022-08-17T12:57:33.859Z,37.37
2022-08-17T13:00:10.264Z,36.34
2022-08-17T13:08:48.410Z,35.69
2022-08-17T13:14:10.086Z,35.83
2022-08-17T13:16:36.863Z,35.53
2022-08-17T13:19:13.063Z,35.48
2022-08-17T13:21:46.168Z,35.31
2022-08-17T13:24:13.923Z,34.18
2022-08-17T13:26:57.800Z,33.54
2022-08-17T13:29:40.143Z,33.25
2022-08-17T13:32:13.074Z,33.47
2022-08-17T13:35:12.013Z,33.51
2022-08-17T13:37:40.668Z,32.04
2022-08-17T13:40:10.076Z,32.36
2022-08-17T13:42:51.821Z,32.53
2022-08-17T13:45:38.846Z,32.54
2022-08-17T13:48:14.511Z,32.58
2022-08-17T13:50:41.216Z,33.61
2022-08-17T13:53:51.238Z,33.94
2022-08-17T13:56:38.250Z,33.69
2022-08-17T13:59:13.074Z,33.47
2022-08-17T14:01:53.533Z,33.50
2022-08-17T14:04:31.703Z,32.45
2022-08-17T14:07:05.473Z,31.66
2022-08-17T14:09:37.335Z,31.79
2022-08-17T14:12:09.690Z,32.07
2022-08-17T14:14:37.118Z,31.54
2022-08-17T14:17:07.887Z,31.67
2022-08-17T14:19:34.941Z,31.83
2022-08-17T14:22:02.209Z,32.44
2022-08-17T14:24:32.163Z,32.32
2022-08-17T14:27:00.504Z,32.09
2022-08-17T14:29:28.994Z,31.18
2022-08-17T14:31:59.380Z,31.79
2022-08-17T14:34:26.040Z,32.25
2022-08-17T14:36:52.781Z,31.54
2022-08-17T14:39:20.161Z,31.13
2022-08-17T14:41:47.256Z,30.67
2022-08-17T14:44:14.005Z,30.57
2022-08-17T14:46:43.060Z,30.56
2022-08-17T14:49:11.880Z,30.78
2022-08-17T14:51:44.320Z,30.52
2022-08-17T14:54:25.599Z,30.33
2022-08-17T14:57:14.816Z,29.53
2022-08-17T14:59:46.281Z,30.14
2022-08-17T15:02:13.557Z,30.35
2022-08-17T15:04:45.342Z,30.78
2022-08-17T15:07:12.407Z,29.34
2022-08-17T15:13:27.615Z,30.13
2022-08-17T15:15:54.681Z,31.42
2022-08-17T15:18:21.603Z,30.02
2022-08-17T15:20:50.131Z,31.26
2022-08-17T15:23:19.700Z,30.47
2022-08-17T15:25:48.659Z,30.21
2022-08-17T15:28:16.100Z,30.48
2022-08-17T15:30:44.823Z,30.01
2022-08-17T15:33:16.760Z,29.17
2022-08-17T15:35:43.836Z,29.65
2022-08-17T15:38:13.447Z,29.54
2022-08-17T15:40:45.342Z,29.70
2022-08-17T15:43:15.974Z,29.22
2022-08-17T15:45:43.121Z,28.66
2022-08-17T15:48:10.104Z,29.02
2022-08-17T15:50:37.464Z,29.66
2022-08-17T15:53:04.948Z,30.22
2022-08-17T15:55:33.338Z,31.12
2022-08-17T15:58:00.460Z,31.31
2022-08-17T16:00:29.245Z,31.12
2022-08-17T16:03:44.388Z,31.37
2022-08-17T16:05:46.694Z,31.05
2022-08-17T16:08:18.476Z,30.52
2022-08-17T16:10:47.539Z,29.86
2022-08-17T16:13:17.141Z,29.47
2022-08-17T16:15:48.675Z,29.39
2022-08-17T16:18:25.610Z,29.28
2022-08-17T16:20:53.321Z,30.26
2022-08-17T16:23:20.321Z,29.99
2022-08-17T16:25:52.748Z,30.73
2022-08-17T16:28:21.901Z,30.06
2022-08-17T16:30:48.605Z,30.60
2022-08-17T16:33:16.737Z,30.15
2022-08-17T16:35:43.389Z,30.57
2022-08-17T16:38:10.940Z,30.84
2022-08-17T16:40:38.131Z,31.12
2022-08-17T16:43:10.537Z,31.04
2022-08-17T16:45:40.857Z,31.99
2022-08-17T16:48:09.253Z,32.19
2022-08-17T16:50:36.913Z,32.70
2022-08-17T16:53:16.232Z,32.58
2022-08-17T16:55:49.663Z,33.78
2022-08-17T16:58:16.381Z,33.98
2022-08-17T17:00:45.121Z,33.36
2022-08-17T17:03:19.792Z,33.92
2022-08-17T17:06:39.984Z,33.13
2022-08-17T17:09:12.702Z,33.16
2022-08-17T17:11:43.613Z,32.93
2022-08-17T17:14:16.869Z,32.65
2022-08-17T17:16:48.820Z,32.54
2022-08-17T17:19:57.638Z,32.84
2022-08-17T17:22:30.179Z,33.15
2022-08-17T17:25:08.437Z,32.86
2022-08-17T17:27:59.848Z,32.29
2022-08-17T17:30:52.442Z,32.61
2022-08-17T17:33:36.104Z,32.64
2022-08-17T17:36:18.875Z,33.23
2022-08-17T17:38:52.918Z,32.83
2022-08-17T17:41:34.364Z,32.69
2022-08-17T17:44:12.313Z,33.25
2022-08-17T17:46:51.574Z,33.04
2022-08-17T17:49:18.850Z,32.58
2022-08-17T17:52:19.284Z,32.56
2022-08-17T17:55:07.559Z,33.57
2022-08-17T17:57:44.853Z,32.96
2022-08-17T18:00:21.846Z,33.12
2022-08-17T18:03:04.595Z,34.13
2022-08-17T18:05:36.866Z,32.74
2022-08-17T18:08:12.108Z,33.48
2022-08-17T18:10:41.589Z,33.35
2022-08-17T18:13:27.317Z,33.56
2022-08-17T18:15:54.462Z,33.37
2022-08-17T18:18:37.773Z,33.59
2022-08-17T18:21:19.554Z,33.10
2022-08-17T18:23:56.956Z,33.37
2022-08-17T18:26:32.887Z,33.85
2022-08-17T18:29:01.387Z,34.64
2022-08-17T18:31:28.012Z,35.43
2022-08-17T18:34:43.427Z,34.93
2022-08-17T18:37:05.079Z,35.13
2022-08-17T18:39:31.767Z,35.64
2022-08-17T18:42:03.612Z,35.64
2022-08-17T18:44:32.711Z,36.66
2022-08-17T18:47:16.720Z,36.53
2022-08-17T18:49:48.962Z,36.98
2022-08-17T18:52:21.538Z,37.28
2022-08-17T18:55:03.417Z,38.04
2022-08-17T18:57:34.932Z,37.01
2022-08-17T19:00:10.191Z,36.32
2022-08-17T19:02:53.532Z,36.96
2022-08-17T19:05:29.406Z,36.67
2022-08-17T19:08:19.274Z,36.27
2022-08-17T19:10:49.098Z,36.99
2022-08-17T19:13:24.576Z,37.34
2022-08-17T19:16:14.586Z,37.32
2022-08-17T19:19:01.854Z,37.27
2022-08-17T19:21:46.878Z,37.25
2022-08-17T19:24:26.473Z,37.73
2022-08-17T19:27:15.855Z,37.60
2022-08-17T19:30:05.370Z,37.89
2022-08-17T19:32:35.802Z,37.82
2022-08-17T19:35:04.528Z,38.43
2022-08-17T19:37:47.306Z,38.22
2022-08-17T19:40:51.817Z,39.06
2022-08-17T19:43:47.999Z,39.65
2022-08-17T19:46:26.025Z,39.54
2022-08-17T19:48:55.637Z,39.79
2022-08-17T19:51:50.666Z,39.67
2022-08-17T19:54:31.029Z,40.04
2022-08-17T19:57:27.409Z,40.63
2022-08-17T20:00:01.041Z,40.33
2022-08-17T20:03:06.171Z,40.74
2022-08-17T20:06:08.575Z,40.24
2022-08-17T20:08:29.744Z,40.45
2022-08-17T20:11:10.357Z,40.33
2022-08-17T20:13:40.845Z,40.59
2022-08-17T20:16:08.007Z,40.87
2022-08-17T20:18:43.957Z,41.52
2022-08-17T20:21:23.967Z,40.99
2022-08-17T20:24:02.139Z,40.39
2022-08-17T20:26:58.967Z,39.49
2022-08-17T20:29:40.219Z,39.57
2022-08-17T20:32:18.902Z,39.94
2022-08-17T20:34:47.290Z,40.05
2022-08-17T20:37:14.270Z,39.92
2022-08-17T20:39:45.035Z,39.36
2022-08-17T20:42:20.685Z,38.94
2022-08-17T20:44:53.970Z,40.22
2022-08-17T20:47:34.216Z,40.98
2022-08-17T20:50:00.836Z,41.37
2022-08-17T20:52:45.613Z,40.77
2022-08-17T20:55:34.110Z,41.06
2022-08-17T20:58:30.891Z,40.97
2022-08-17T21:00:57.692Z,40.69
2022-08-17T21:03:25.049Z,41.18
2022-08-17T21:06:17.104Z,41.31
2022-08-17T21:08:57.743Z,41.11
2022-08-17T21:11:56.975Z,40.57
2022-08-17T21:14:36.730Z,41.04
2022-08-17T21:17:29.742Z,41.12
2022-08-17T21:20:32.604Z,41.21
2022-08-17T21:23:11.261Z,41.52
2022-08-17T21:25:51.929Z,42.08
2022-08-17T21:28:21.371Z,42.64
2022-08-17T21:30:56.738Z,42.59
2022-08-17T21:33:25.328Z,42.19
2022-08-17T21:36:16.830Z,43.06
2022-08-17T21:38:53.399Z,43.07
2022-08-17T21:41:28.113Z,42.64
2022-08-17T21:44:05.567Z,43.24
2022-08-17T21:46:37.659Z,43.25
2022-08-17T21:49:13.914Z,43.36
2022-08-17T21:51:50.023Z,43.11
2022-08-17T21:54:41.770Z,43.11
2022-08-17T21:57:17.589Z,42.33
2022-08-17T21:59:44.662Z,42.46
2022-08-17T22:02:51.408Z,42.88
2022-08-17T22:05:29.987Z,42.46
2022-08-17T22:08:02.611Z,42.76
2022-08-17T22:10:37.754Z,42.94
2022-08-17T22:13:16.538Z,43.34
2022-08-17T22:15:49.699Z,43.53
2022-08-17T22:18:27.303Z,43.56
2022-08-17T22:20:57.020Z,43.22
2022-08-17T22:23:42.157Z,42.45
2022-08-17T22:26:12.766Z,42.49
2022-08-17T22:28:50.439Z,42.08
2022-08-17T22:31:28.810Z,41.81
2022-08-17T22:33:59.859Z,42.67
2022-08-17T22:36:34.514Z,42.70
2022-08-17T22:39:07.500Z,42.17
2022-08-17T22:41:54.384Z,42.70
2022-08-17T22:44:26.336Z,42.90
2022-08-17T22:47:11.270Z,42.45
2022-08-17T22:49:54.132Z,43.54
2022-08-17T22:53:00.536Z,42.90
2022-08-17T22:55:48.310Z,42.65
2022-08-17T22:58:42.866Z,42.76
2022-08-17T23:01:32.514Z,43.15
2022-08-17T23:04:02.557Z,42.94
2022-08-17T23:06:29.782Z,43.18
2022-08-17T23:08:57.731Z,43.55
2022-08-17T23:11:36.955Z,44.80
2022-08-17T23:14:15.757Z,45.24
2022-08-17T23:16:42.714Z,44.61
2022-08-17T23:19:15.637Z,44.61
2022-08-17T23:21:46.232Z,44.22
2022-08-17T23:24:22.880Z,45.30
2022-08-17T23:26:49.710Z,44.51
2022-08-17T23:29:16.686Z,44.42
2022-08-17T23:31:43.485Z,44.31
2022-08-17T23:34:13.270Z,43.76
2022-08-17T23:36:39.934Z,44.04
2022-08-17T23:39:07.463Z,44.52
2022-08-17T23:41:38.610Z,44.27
2022-08-17T23:44:06.470Z,44.38
2022-08-17T23:46:34.558Z,44.35
2022-08-17T23:49:01.439Z,44.22
2022-08-17T23:51:31.811Z,44.21
2022-08-17T23:54:08.187Z,44.42
2022-08-17T23:56:38.507Z,44.56
2022-08-17T23:59:05.631Z,45.25
